PET weather

Petrolea Airport
CĂșcuta, Norte de Santander Department, Colombia

Public forecast

Using degrees Celsius for public forecast. Weather courtesy of forecast.io.

METAR (pilot weather report)

Report is more than 6 hours old.

Closest report is La Fria Airport, 24.8 nm (45.9 km) SE. Retrieved 2017/09/20 18:00 UTC (2 years ago):

SVLF 201800Z 00000KT 9999 SCT040 XX/XX Q1010

TAF (pilot weather forecast)

Closest forecast is Camilo Daza International Airport, 34.6 nm (64.0 km) S. Retrieved 2019/06/17 06:39 UTC (3 hours ago):

TAF TAF SKCC 170430Z 1706/1806 15015KT 9999 SCT023 SCT090 TX34/1719Z TN24/1711Z